Time;durP1;ratioP1;P1;durP2;ratioP2;P2;SDS_P1;SDS_P2;PMS_P1;PMS_P2;Temp;Humidity;BMP_temperature;BMP_pressure;BME280_temperature;BME280_humidity;BME280_pressure;Samples;Min_cycle;Max_cycle;Signal;HPM_P1;HPM_P2
2022/08/03 00:01:44;;;;;;;4.28;3.65;;;16.10;92.90;;;;;;4984710;28;20019;-73
2022/08/03 00:04:11;;;;;;;5.45;3.35;;;16.10;92.90;;;;;;4982796;28;20038;-72
2022/08/03 00:06:38;;;;;;;8.60;3.95;;;16.10;92.90;;;;;;5002964;28;20449;-74
2022/08/03 00:09:06;;;;;;;7.97;4.10;;;16.00;92.90;;;;;;4988240;28;20038;-71
2022/08/03 00:11:32;;;;;;;7.97;4.40;;;16.00;92.80;;;;;;4984055;28;20039;-72
2022/08/03 00:13:59;;;;;;;5.65;3.42;;;16.00;92.80;;;;;;4988098;28;20037;-71
2022/08/03 00:16:26;;;;;;;8.13;4.65;;;16.00;92.80;;;;;;4984655;28;20553;-71
2022/08/03 00:18:52;;;;;;;8.25;3.80;;;16.00;92.80;;;;;;4983566;28;20379;-71
2022/08/03 00:21:19;;;;;;;11.32;4.13;;;16.00;92.80;;;;;;4985317;28;20512;-70
2022/08/03 00:23:45;;;;;;;11.70;3.88;;;16.00;92.90;;;;;;4984697;28;20030;-70
2022/08/03 00:26:12;;;;;;;6.75;4.10;;;16.00;92.80;;;;;;4989695;28;20026;-71
2022/08/03 00:28:38;;;;;;;6.90;4.28;;;16.00;92.80;;;;;;4982107;28;20053;-70
2022/08/03 00:31:06;;;;;;;8.25;4.65;;;15.90;92.70;;;;;;4983637;28;20026;-70
2022/08/03 00:33:32;;;;;;;8.13;4.40;;;15.90;92.80;;;;;;4984989;28;20034;-70
2022/08/03 00:35:59;;;;;;;9.73;5.38;;;15.90;92.70;;;;;;4989075;28;20021;-70
2022/08/03 00:38:25;;;;;;;7.40;4.38;;;15.90;92.70;;;;;;4987938;28;20030;-70
2022/08/03 00:40:52;;;;;;;8.48;3.83;;;15.90;92.70;;;;;;4980843;28;20027;-70
2022/08/03 00:43:18;;;;;;;10.68;4.72;;;15.90;92.70;;;;;;4983114;28;20084;-70
2022/08/03 00:45:45;;;;;;;7.28;3.63;;;15.90;92.70;;;;;;4988093;28;20026;-70
2022/08/03 00:48:12;;;;;;;9.18;4.05;;;15.90;92.80;;;;;;4984384;28;20104;-70
2022/08/03 00:50:41;;;;;;;7.18;4.15;;;15.90;92.80;;;;;;4984835;28;20105;-73
2022/08/03 00:53:13;;;;;;;6.55;4.20;;;15.90;92.80;;;;;;4988154;28;20026;-69
2022/08/03 00:55:41;;;;;;;7.78;4.57;;;15.90;92.80;;;;;;4988275;28;20018;-70
2022/08/03 00:58:10;;;;;;;11.02;5.47;;;15.80;92.70;;;;;;4986072;28;20504;-70
2022/08/03 01:00:38;;;;;;;10.35;5.18;;;15.80;92.70;;;;;;4990350;28;20092;-70
2022/08/03 01:03:09;;;;;;;6.45;4.72;;;15.80;92.70;;;;;;4983575;28;20395;-70
2022/08/03 01:05:53;;;;;;;5.93;5.28;;;15.80;92.70;;;;;;4997213;28;20050;-69
2022/08/03 01:08:34;;;;;;;8.85;5.28;;;15.80;92.70;;;;;;4982538;28;20132;-70
2022/08/03 01:11:13;;;;;;;14.93;6.28;;;15.80;92.70;;;;;;4983926;28;20031;-70
2022/08/03 01:13:39;;;;;;;10.88;7.47;;;15.80;92.70;;;;;;4979967;28;20105;-71
2022/08/03 01:16:17;;;;;;;11.55;6.45;;;15.80;92.70;;;;;;4986910;28;20081;-71
2022/08/03 01:18:52;;;;;;;11.05;6.53;;;15.80;92.70;;;;;;4982734;28;20037;-70
2022/08/03 01:22:11;;;;;;;12.57;8.23;;;15.80;92.70;;;;;;4985338;28;20048;-70
2022/08/03 01:24:58;;;;;;;10.10;5.43;;;15.70;92.60;;;;;;4982522;28;20042;-71
2022/08/03 01:27:42;;;;;;;10.40;5.60;;;15.70;92.60;;;;;;4983544;28;20031;-71
2022/08/03 01:30:11;;;;;;;11.07;5.03;;;15.70;92.60;;;;;;4980534;28;20034;-70
2022/08/03 01:32:45;;;;;;;14.57;4.88;;;15.70;92.60;;;;;;4984516;28;20022;-71
2022/08/03 01:35:28;;;;;;;12.98;5.32;;;15.70;92.60;;;;;;4978381;28;20110;-71
2022/08/03 01:38:04;;;;;;;17.48;6.80;;;15.80;92.60;;;;;;4982938;28;20555;-71
2022/08/03 01:40:33;;;;;;;8.98;4.82;;;15.70;92.50;;;;;;4988116;28;20026;-71
2022/08/03 01:43:02;;;;;;;10.80;4.15;;;15.70;92.60;;;;;;4982062;28;20007;-71
2022/08/03 01:45:31;;;;;;;9.05;4.00;;;15.70;92.50;;;;;;4982247;28;20406;-71
2022/08/03 01:47:58;;;;;;;6.63;4.38;;;15.70;92.50;;;;;;4981690;28;20399;-70
2022/08/03 01:50:28;;;;;;;7.63;5.63;;;15.70;92.50;;;;;;4988610;28;20389;-71
2022/08/03 01:52:56;;;;;;;9.32;4.93;;;15.70;92.50;;;;;;4981796;28;20011;-71
2022/08/03 01:55:28;;;;;;;6.60;4.22;;;15.70;92.50;;;;;;4981276;28;20021;-71
2022/08/03 01:57:58;;;;;;;17.60;4.95;;;15.70;92.50;;;;;;4985440;28;20019;-72
2022/08/03 02:00:26;;;;;;;14.90;6.03;;;15.70;92.50;;;;;;4984460;28;20482;-70
2022/08/03 02:02:55;;;;;;;7.18;4.57;;;15.70;92.50;;;;;;4981271;28;20355;-70
2022/08/03 02:05:22;;;;;;;8.07;5.00;;;15.70;92.50;;;;;;4983704;28;20030;-71
2022/08/03 02:07:50;;;;;;;7.85;3.83;;;15.70;92.40;;;;;;4984997;28;20117;-71
2022/08/03 02:10:20;;;;;;;5.93;3.88;;;15.70;92.40;;;;;;4979901;28;20390;-71
2022/08/03 02:12:49;;;;;;;8.13;4.90;;;15.60;92.30;;;;;;4981920;28;20022;-71
2022/08/03 02:15:18;;;;;;;8.43;4.15;;;15.60;92.30;;;;;;4987000;28;20022;-71
2022/08/03 02:17:46;;;;;;;13.30;4.68;;;15.60;92.30;;;;;;4983186;28;20486;-71
2022/08/03 02:20:14;;;;;;;6.75;4.00;;;15.60;92.20;;;;;;4985608;28;20046;-72
2022/08/03 02:22:43;;;;;;;11.95;4.28;;;15.60;92.20;;;;;;4983062;28;20027;-70
2022/08/03 02:25:12;;;;;;;8.63;4.72;;;15.60;92.20;;;;;;4983309;28;20404;-71
2022/08/03 02:28:06;;;;;;;5.95;4.05;;;15.50;92.10;;;;;;4986603;28;20030;-71
2022/08/03 02:30:38;;;;;;;5.68;3.78;;;15.60;92.50;;;;;;4991055;28;20052;-70
2022/08/03 02:33:10;;;;;;;6.47;4.18;;;15.50;92.10;;;;;;5003214;28;20505;-69
2022/08/03 02:35:38;;;;;;;8.68;5.28;;;15.50;92.00;;;;;;4990737;28;20639;-71
2022/08/03 02:38:09;;;;;;;7.00;3.50;;;15.50;92.00;;;;;;4988483;28;20081;-70
2022/08/03 02:40:37;;;;;;;8.10;3.92;;;15.50;91.90;;;;;;4990923;28;20018;-71
2022/08/03 02:43:08;;;;;;;8.70;4.03;;;15.50;91.80;;;;;;4987327;28;20019;-70
2022/08/03 02:45:44;;;;;;;10.75;5.13;;;15.50;91.70;;;;;;4991654;28;20018;-73
2022/08/03 02:48:15;;;;;;;7.00;4.20;;;15.50;91.70;;;;;;4989540;28;20032;-73
2022/08/03 02:50:43;;;;;;;5.85;3.55;;;15.40;91.60;;;;;;4993061;28;20022;-73
2022/08/03 02:53:13;;;;;;;8.48;4.20;;;15.40;91.50;;;;;;4989259;28;20053;-70
2022/08/03 02:55:40;;;;;;;6.28;4.20;;;15.30;91.40;;;;;;4990632;28;20716;-72
2022/08/03 02:58:08;;;;;;;10.10;6.20;;;15.30;91.30;;;;;;4987610;28;20031;-70
2022/08/03 03:00:36;;;;;;;9.82;6.28;;;15.30;91.20;;;;;;4988478;28;20018;-71
2022/08/03 03:03:05;;;;;;;9.13;6.07;;;15.30;91.10;;;;;;4989885;28;20030;-72
2022/08/03 03:05:33;;;;;;;6.75;5.40;;;15.30;91.00;;;;;;4993858;28;20034;-72
2022/08/03 03:08:00;;;;;;;7.43;5.68;;;15.30;90.80;;;;;;4988686;28;20038;-71
2022/08/03 03:10:27;;;;;;;5.78;5.18;;;15.20;90.70;;;;;;4990116;28;20126;-72
2022/08/03 03:12:58;;;;;;;7.85;5.05;;;15.20;90.60;;;;;;4988894;28;20105;-71
2022/08/03 03:15:26;;;;;;;8.27;5.57;;;15.20;90.40;;;;;;4991815;28;20046;-70
2022/08/03 03:17:54;;;;;;;23.52;6.60;;;15.20;90.40;;;;;;4986049;28;20031;-70
2022/08/03 03:20:22;;;;;;;12.10;6.07;;;15.20;90.30;;;;;;4991090;28;20028;-71
2022/08/03 03:22:50;;;;;;;7.10;5.50;;;15.20;90.40;;;;;;4989181;28;20127;-71
2022/08/03 03:25:18;;;;;;;26.15;7.60;;;15.20;90.50;;;;;;4990545;28;20089;-71
2022/08/03 03:27:45;;;;;;;29.30;7.68;;;15.20;90.60;;;;;;4987002;28;20098;-71
2022/08/03 03:30:12;;;;;;;27.45;8.10;;;15.20;90.70;;;;;;4992317;28;20668;-72
2022/08/03 03:32:39;;;;;;;6.72;6.03;;;15.20;90.80;;;;;;4989148;28;20056;-71
2022/08/03 03:35:06;;;;;;;11.68;5.53;;;15.20;90.60;;;;;;4991424;28;21743;-71
2022/08/03 03:37:33;;;;;;;15.43;5.63;;;15.10;90.40;;;;;;4986084;28;20382;-70
2022/08/03 03:39:59;;;;;;;10.48;6.00;;;15.10;90.40;;;;;;4980764;28;20030;-71
2022/08/03 03:42:26;;;;;;;17.58;6.82;;;15.10;90.50;;;;;;4987230;28;20580;-70
2022/08/03 03:44:53;;;;;;;13.88;5.00;;;15.10;90.20;;;;;;4987077;28;20118;-71
2022/08/03 03:47:59;;;;;;;16.00;5.63;;;15.10;90.20;;;;;;4985185;28;20034;-71
2022/08/03 03:50:26;;;;;;;5.70;4.72;;;15.10;90.20;;;;;;4990221;28;20038;-69
2022/08/03 03:52:53;;;;;;;8.32;4.97;;;15.00;89.90;;;;;;4986994;28;20077;-71
2022/08/03 03:55:19;;;;;;;5.90;3.88;;;15.00;89.50;;;;;;4989010;28;20060;-72
2022/08/03 03:57:46;;;;;;;10.43;5.70;;;15.00;89.20;;;;;;4983753;28;20143;-71
2022/08/03 04:00:14;;;;;;;6.72;4.57;;;15.00;88.80;;;;;;4990334;28;20031;-75
2022/08/03 04:02:40;;;;;;;5.53;4.32;;;15.00;88.30;;;;;;4983205;28;20076;-76
2022/08/03 04:11:00;;;;;;;6.13;4.18;;;14.90;87.40;;;;;;4988619;28;19960;-72
2022/08/03 04:13:52;;;;;;;6.65;3.75;;;14.80;87.10;;;;;;4981938;28;20026;-70
2022/08/03 04:16:22;;;;;;;20.67;16.25;;;14.80;87.20;;;;;;4982648;28;20031;-70
2022/08/03 04:19:23;;;;;;;18.52;13.25;;;14.80;87.50;;;;;;4978416;28;20026;-74
2022/08/03 04:21:53;;;;;;;12.20;8.82;;;14.80;87.50;;;;;;4991023;28;20117;-81
2022/08/03 04:24:21;;;;;;;13.02;6.55;;;14.80;87.50;;;;;;4987770;28;20080;-74
2022/08/03 04:26:50;;;;;;;9.48;5.53;;;14.70;87.40;;;;;;4980927;28;20022;-70
2022/08/03 04:29:18;;;;;;;5.68;4.00;;;14.70;87.20;;;;;;4991787;28;20108;-69
2022/08/03 04:31:47;;;;;;;5.03;3.70;;;14.70;86.90;;;;;;4981466;28;20122;-72
2022/08/03 04:34:14;;;;;;;5.07;3.53;;;14.70;86.70;;;;;;4981738;28;20033;-72
2022/08/03 04:36:48;;;;;;;6.30;3.80;;;14.60;86.40;;;;;;4976751;28;20043;-75
2022/08/03 04:39:22;;;;;;;16.25;4.75;;;14.70;86.50;;;;;;4984382;28;20037;-70
2022/08/03 04:41:50;;;;;;;12.82;9.63;;;14.60;86.60;;;;;;4982980;28;20029;-73
2022/08/03 04:44:20;;;;;;;16.17;7.72;;;14.60;86.90;;;;;;4983321;28;20181;-70
2022/08/03 04:46:48;;;;;;;9.38;6.85;;;14.60;86.90;;;;;;4985993;28;20512;-71
2022/08/03 04:49:15;;;;;;;6.13;5.47;;;14.60;86.90;;;;;;4983674;28;20369;-71
2022/08/03 04:51:41;;;;;;;10.48;4.63;;;14.60;86.90;;;;;;4984244;28;20026;-74
2022/08/03 04:54:12;;;;;;;10.60;6.45;;;14.60;87.30;;;;;;4986323;28;20148;-70
2022/08/03 04:56:43;;;;;;;17.63;4.45;;;14.60;87.60;;;;;;4985260;28;20026;-71
2022/08/03 04:59:10;;;;;;;8.48;4.63;;;14.60;87.60;;;;;;4980628;28;20027;-71
2022/08/03 05:01:36;;;;;;;7.70;4.95;;;14.60;88.10;;;;;;4978840;28;20094;-69
2022/08/03 05:04:03;;;;;;;6.72;5.22;;;14.60;88.40;;;;;;4984770;28;20065;-71
2022/08/03 05:06:30;;;;;;;6.55;4.93;;;14.60;88.60;;;;;;4980710;28;20052;-70
2022/08/03 05:08:56;;;;;;;5.38;4.43;;;14.60;88.70;;;;;;4994969;28;20470;-72
2022/08/03 05:11:22;;;;;;;9.80;5.50;;;14.60;88.70;;;;;;4981412;28;20030;-70
2022/08/03 05:13:49;;;;;;;6.05;4.32;;;14.60;88.70;;;;;;4983612;28;20033;-74
2022/08/03 05:16:16;;;;;;;7.15;4.80;;;14.60;88.80;;;;;;4983234;28;20054;-74
2022/08/03 05:18:42;;;;;;;5.10;4.70;;;14.60;88.90;;;;;;4986034;28;20018;-71
2022/08/03 05:21:09;;;;;;;8.10;5.40;;;14.60;88.90;;;;;;4985936;28;20041;-70
2022/08/03 05:23:45;;;;;;;8.02;5.28;;;14.60;88.90;;;;;;4980961;28;20038;-71
2022/08/03 05:26:12;;;;;;;6.88;6.28;;;14.70;89.00;;;;;;4996771;28;20034;-72
2022/08/03 05:28:38;;;;;;;7.15;5.30;;;14.70;88.90;;;;;;4985788;28;20919;-76
2022/08/03 05:31:05;;;;;;;9.32;6.15;;;14.70;89.00;;;;;;4977621;28;20026;-73
2022/08/03 05:33:31;;;;;;;25.98;16.25;;;14.70;89.40;;;;;;4982336;28;20436;-70
2022/08/03 05:35:58;;;;;;;33.08;18.90;;;14.70;89.70;;;;;;4985868;28;20018;-77
2022/08/03 05:38:25;;;;;;;13.90;12.40;;;14.70;89.60;;;;;;4985129;28;20042;-75
2022/08/03 05:40:52;;;;;;;36.83;9.07;;;14.70;89.60;;;;;;4985381;28;20019;-74
2022/08/03 05:43:18;;;;;;;11.82;6.78;;;14.70;89.10;;;;;;4977145;28;20479;-70
2022/08/03 05:45:44;;;;;;;12.70;5.93;;;14.70;89.00;;;;;;4983273;28;20045;-71
2022/08/03 05:48:11;;;;;;;8.02;3.95;;;14.60;88.90;;;;;;4978715;28;20125;-76
2022/08/03 05:50:37;;;;;;;5.38;4.88;;;14.60;89.00;;;;;;4983286;28;20072;-76
2022/08/03 05:53:04;;;;;;;8.02;5.43;;;14.60;88.90;;;;;;4979954;28;20134;-72
2022/08/03 05:55:30;;;;;;;6.88;4.93;;;14.60;88.70;;;;;;4997004;28;20465;-71
2022/08/03 05:57:57;;;;;;;6.80;3.88;;;14.60;88.70;;;;;;4976308;28;20031;-76
2022/08/03 06:00:23;;;;;;;11.23;4.47;;;14.60;88.60;;;;;;4983026;28;20076;-74
2022/08/03 06:02:50;;;;;;;7.32;4.30;;;14.50;88.80;;;;;;4981468;28;20072;-75
2022/08/03 06:05:16;;;;;;;9.18;4.18;;;14.50;88.90;;;;;;4988181;28;20106;-69
2022/08/03 06:07:43;;;;;;;11.50;3.92;;;14.50;88.90;;;;;;4979075;28;20038;-77
2022/08/03 06:10:09;;;;;;;10.10;3.47;;;14.50;89.00;;;;;;4983773;28;20605;-74
2022/08/03 06:12:36;;;;;;;5.90;3.58;;;14.50;89.60;;;;;;4983612;28;20019;-76
2022/08/03 06:15:04;;;;;;;6.93;4.13;;;14.50;89.00;;;;;;4979069;28;20018;-75
2022/08/03 06:17:30;;;;;;;7.38;3.00;;;14.50;89.20;;;;;;4981350;28;20031;-72
2022/08/03 06:19:57;;;;;;;6.25;3.40;;;14.50;89.20;;;;;;4984012;28;20436;-76
2022/08/03 06:22:24;;;;;;;12.05;3.75;;;14.50;89.40;;;;;;4983303;28;20078;-71
2022/08/03 06:24:50;;;;;;;7.82;4.15;;;14.50;89.40;;;;;;4977948;28;20073;-74
2022/08/03 06:27:17;;;;;;;12.13;4.00;;;14.50;89.60;;;;;;4984992;28;20354;-71
2022/08/03 06:29:44;;;;;;;5.07;3.08;;;14.50;89.80;;;;;;4979333;28;20041;-75
2022/08/03 06:32:10;;;;;;;13.63;6.43;;;14.50;90.00;;;;;;4978648;28;20026;-74
2022/08/03 06:34:37;;;;;;;10.30;5.78;;;14.50;90.10;;;;;;4980759;28;20116;-74
2022/08/03 06:37:03;;;;;;;10.32;5.00;;;14.50;90.10;;;;;;4978599;28;20023;-74
2022/08/03 06:39:30;;;;;;;5.55;4.40;;;14.50;90.20;;;;;;4979021;28;20035;-77
2022/08/03 06:41:56;;;;;;;7.10;3.67;;;14.50;90.30;;;;;;4983020;28;20030;-70
2022/08/03 06:44:23;;;;;;;8.90;5.07;;;14.50;90.30;;;;;;4979710;28;20041;-76
2022/08/03 06:46:50;;;;;;;33.67;6.43;;;14.50;90.40;;;;;;4979036;28;20023;-73
2022/08/03 06:49:17;;;;;;;10.75;4.07;;;14.50;90.60;;;;;;4974622;28;20065;-76
2022/08/03 06:51:44;;;;;;;6.20;3.90;;;14.50;90.60;;;;;;4977711;28;20423;-73
2022/08/03 06:54:11;;;;;;;5.63;3.80;;;14.60;90.70;;;;;;4983465;28;20058;-71
2022/08/03 06:56:38;;;;;;;13.93;4.40;;;14.60;90.70;;;;;;4980733;28;20125;-70
2022/08/03 06:59:04;;;;;;;11.55;4.32;;;14.60;90.70;;;;;;4981887;28;20026;-73
2022/08/03 07:01:31;;;;;;;13.45;5.57;;;14.60;90.80;;;;;;4983863;28;20034;-70
2022/08/03 07:03:57;;;;;;;16.02;4.30;;;14.60;90.90;;;;;;4980724;28;20511;-71
2022/08/03 07:06:24;;;;;;;14.98;5.32;;;14.60;91.00;;;;;;4998181;28;20448;-76
2022/08/03 07:08:50;;;;;;;15.30;6.93;;;14.60;91.20;;;;;;4980663;28;20473;-72
2022/08/03 07:11:17;;;;;;;15.63;6.18;;;14.70;91.30;;;;;;4982997;28;20022;-69
2022/08/03 07:13:43;;;;;;;10.82;6.55;;;14.70;91.30;;;;;;4984640;28;20029;-69
2022/08/03 07:16:10;;;;;;;37.15;12.57;;;14.70;91.40;;;;;;4982434;28;20041;-77
2022/08/03 07:18:40;;;;;;;36.30;17.90;;;14.70;91.40;;;;;;4983707;28;20038;-73
2022/08/03 07:21:08;;;;;;;33.17;21.17;;;14.70;91.50;;;;;;4978086;28;20581;-69
2022/08/03 07:23:34;;;;;;;64.03;26.52;;;14.70;91.70;;;;;;4982330;28;20046;-70
2022/08/03 07:26:01;;;;;;;34.97;23.85;;;14.80;91.80;;;;;;4982266;28;20859;-72
2022/08/03 07:28:27;;;;;;;38.10;20.08;;;14.80;91.80;;;;;;4983017;28;20066;-71
2022/08/03 07:30:54;;;;;;;37.22;20.80;;;14.90;91.70;;;;;;4982743;28;20027;-73
2022/08/03 07:33:20;;;;;;;41.90;29.05;;;14.90;91.70;;;;;;4988728;28;20027;-75
2022/08/03 07:35:47;;;;;;;49.50;36.45;;;14.90;91.70;;;;;;4982176;28;20506;-73
2022/08/03 07:38:13;;;;;;;57.03;45.22;;;14.90;91.60;;;;;;4988331;28;20101;-69
2022/08/03 07:40:40;;;;;;;59.42;46.17;;;14.90;91.60;;;;;;4981474;28;20426;-72
2022/08/03 07:43:06;;;;;;;70.35;48.55;;;14.90;91.60;;;;;;4978611;28;20022;-74
2022/08/03 07:45:33;;;;;;;62.70;48.20;;;14.90;91.50;;;;;;4981976;28;20037;-69
2022/08/03 07:48:00;;;;;;;54.88;40.85;;;14.90;91.50;;;;;;4988091;28;20057;-71
2022/08/03 07:50:26;;;;;;;47.25;33.60;;;14.90;91.60;;;;;;4982122;28;20390;-74
2022/08/03 07:52:54;;;;;;;35.95;26.80;;;15.00;91.60;;;;;;4981541;28;20033;-74
2022/08/03 07:55:26;;;;;;;37.65;24.88;;;15.00;91.60;;;;;;4984432;28;20370;-69
2022/08/03 07:58:23;;;;;;;33.05;24.92;;;15.00;91.60;;;;;;4985729;28;20122;-71
2022/08/03 08:00:51;;;;;;;95.10;68.05;;;15.10;91.70;;;;;;4983514;28;20043;-74
2022/08/03 08:03:18;;;;;;;68.28;48.13;;;15.10;91.70;;;;;;4982304;28;20038;-74
2022/08/03 08:05:45;;;;;;;52.30;33.97;;;15.10;92.00;;;;;;4985370;28;20023;-74
2022/08/03 08:08:11;;;;;;;40.03;27.38;;;15.20;91.70;;;;;;4984567;28;20608;-71
2022/08/03 08:10:40;;;;;;;35.40;21.27;;;15.30;91.80;;;;;;4983950;28;20050;-74
2022/08/03 08:13:07;;;;;;;40.17;20.63;;;15.30;91.90;;;;;;4984648;28;20433;-72
2022/08/03 08:15:33;;;;;;;29.95;18.48;;;15.40;91.90;;;;;;4981249;28;20118;-75
2022/08/03 08:18:01;;;;;;;31.05;18.20;;;15.40;91.90;;;;;;4979332;28;20392;-73
2022/08/03 08:20:33;;;;;;;24.05;17.88;;;15.40;91.90;;;;;;4979773;28;20023;-71
2022/08/03 08:23:01;;;;;;;29.02;15.95;;;15.50;91.80;;;;;;4984279;28;20127;-71
2022/08/03 08:25:29;;;;;;;33.33;19.55;;;15.50;91.80;;;;;;4980982;28;20609;-71
2022/08/03 08:27:56;;;;;;;35.50;24.83;;;15.50;91.80;;;;;;4983938;28;20066;-76
2022/08/03 08:30:23;;;;;;;30.58;21.50;;;15.50;91.80;;;;;;4980706;28;20030;-74
2022/08/03 08:32:50;;;;;;;28.27;18.38;;;15.60;91.80;;;;;;4982688;28;20033;-74
2022/08/03 08:35:18;;;;;;;27.13;17.30;;;15.60;91.80;;;;;;4985686;28;20034;-74
2022/08/03 08:37:45;;;;;;;33.55;16.48;;;15.60;91.90;;;;;;4983278;28;20026;-70
2022/08/03 08:40:14;;;;;;;26.05;16.20;;;15.60;91.90;;;;;;4982917;28;20989;-72
2022/08/03 08:42:42;;;;;;;23.27;16.92;;;15.60;92.00;;;;;;4982445;28;20060;-74
2022/08/03 08:45:10;;;;;;;26.38;15.80;;;15.70;92.10;;;;;;4986518;28;20112;-76
2022/08/03 08:47:44;;;;;;;23.15;16.25;;;15.60;92.20;;;;;;4985510;28;20113;-76
2022/08/03 08:50:11;;;;;;;24.60;13.45;;;15.70;92.30;;;;;;4981363;28;20026;-73
2022/08/03 08:52:41;;;;;;;22.23;13.38;;;15.70;92.60;;;;;;4986917;28;20445;-74
2022/08/03 08:55:09;;;;;;;38.55;15.25;;;15.70;92.40;;;;;;4978790;28;20438;-71
2022/08/03 08:57:41;;;;;;;26.52;14.15;;;15.80;92.40;;;;;;4982341;28;20014;-70
2022/08/03 09:00:12;;;;;;;21.52;13.02;;;15.80;92.50;;;;;;4979458;28;20061;-71
2022/08/03 09:02:42;;;;;;;18.08;12.32;;;15.90;92.90;;;;;;4980161;28;20027;-75
2022/08/03 09:05:14;;;;;;;18.67;11.43;;;15.90;92.60;;;;;;4985682;28;20031;-74
2022/08/03 09:07:42;;;;;;;13.05;9.07;;;15.90;92.60;;;;;;4995836;28;20519;-72
2022/08/03 09:10:10;;;;;;;16.25;9.68;;;15.90;92.50;;;;;;4987153;28;20636;-75
2022/08/03 09:12:44;;;;;;;21.60;10.00;;;16.00;92.50;;;;;;4984333;28;20331;-75
2022/08/03 09:15:25;;;;;;;16.88;9.80;;;16.10;92.50;;;;;;4983953;28;20134;-74
2022/08/03 09:17:54;;;;;;;23.25;14.23;;;16.10;92.40;;;;;;4987481;28;20037;-76
2022/08/03 09:20:22;;;;;;;32.92;13.73;;;16.10;92.30;;;;;;4983395;28;20058;-76
2022/08/03 09:22:59;;;;;;;20.83;10.50;;;16.20;92.30;;;;;;4983743;28;20019;-77
2022/08/03 09:25:31;;;;;;;14.70;9.00;;;16.20;92.30;;;;;;4978199;28;20395;-75
2022/08/03 09:28:11;;;;;;;18.52;9.35;;;16.30;92.10;;;;;;4984357;28;20015;-75
2022/08/03 09:30:40;;;;;;;15.90;8.38;;;16.30;91.90;;;;;;4979463;28;20018;-78
2022/08/03 09:33:15;;;;;;;14.73;7.43;;;16.30;91.70;;;;;;4983110;28;20022;-77
2022/08/03 09:35:43;;;;;;;19.47;8.67;;;16.30;91.50;;;;;;4983445;28;20027;-73
2022/08/03 09:38:22;;;;;;;13.70;7.85;;;16.30;91.60;;;;;;4981133;28;20548;-72
2022/08/03 09:40:49;;;;;;;13.65;7.40;;;16.30;91.20;;;;;;4980682;28;20030;-73
2022/08/03 09:43:16;;;;;;;13.20;7.75;;;16.40;91.20;;;;;;4982185;28;20029;-73
2022/08/03 09:45:43;;;;;;;24.08;13.07;;;16.40;91.20;;;;;;4983946;28;20021;-73
2022/08/03 09:48:28;;;;;;;15.48;9.20;;;16.40;91.20;;;;;;4978244;28;20105;-73
2022/08/03 09:51:00;;;;;;;13.10;8.07;;;16.40;91.10;;;;;;4984765;28;20068;-72
2022/08/03 09:53:27;;;;;;;13.60;7.78;;;16.50;91.00;;;;;;4982771;28;20390;-72
2022/08/03 09:55:59;;;;;;;12.07;8.75;;;16.60;91.00;;;;;;4981042;28;20041;-73
2022/08/03 09:58:27;;;;;;;13.15;7.50;;;16.60;90.90;;;;;;4980029;28;20034;-72
2022/08/03 10:01:04;;;;;;;8.90;6.57;;;16.70;90.80;;;;;;4977963;28;20019;-73
2022/08/03 10:03:33;;;;;;;17.30;9.40;;;16.70;90.70;;;;;;4977994;28;20041;-77
2022/08/03 10:06:21;;;;;;;10.40;7.20;;;16.80;90.60;;;;;;4977234;28;20500;-73
2022/08/03 10:09:05;;;;;;;11.07;6.38;;;16.80;90.40;;;;;;4979430;28;20105;-72
2022/08/03 10:11:33;;;;;;;14.52;11.38;;;16.90;90.20;;;;;;4995852;28;20030;-71
2022/08/03 10:14:04;;;;;;;22.60;12.57;;;16.90;90.10;;;;;;4980024;28;20088;-73
2022/08/03 10:16:39;;;;;;;18.15;10.55;;;16.90;90.00;;;;;;4980159;28;20027;-76
2022/08/03 10:19:09;;;;;;;12.10;7.88;;;17.00;90.00;;;;;;4984618;28;20065;-76
2022/08/03 10:21:38;;;;;;;7.00;4.72;;;17.00;89.80;;;;;;4978510;28;20485;-73
2022/08/03 10:24:07;;;;;;;6.35;3.55;;;17.00;89.60;;;;;;4976725;28;20035;-76
2022/08/03 10:26:39;;;;;;;7.93;3.00;;;17.00;88.90;;;;;;4979911;28;20037;-77
2022/08/03 10:29:11;;;;;;;5.13;2.53;;;17.00;87.80;;;;;;4979960;28;20497;-73
2022/08/03 10:31:45;;;;;;;9.60;3.10;;;16.90;87.40;;;;;;4978695;28;20114;-70
2022/08/03 10:34:21;;;;;;;9.10;2.58;;;16.90;87.30;;;;;;4979524;28;20018;-71
2022/08/03 10:36:52;;;;;;;13.57;4.75;;;16.90;87.20;;;;;;4977573;28;20474;-75
2022/08/03 10:39:21;;;;;;;5.80;2.28;;;16.90;87.50;;;;;;4977088;28;20531;-74
2022/08/03 10:41:49;;;;;;;9.02;1.75;;;16.90;87.30;;;;;;4978067;28;20029;-73
2022/08/03 10:44:22;;;;;;;3.22;1.90;;;16.90;87.00;;;;;;4980081;28;20486;-72
2022/08/03 10:46:49;;;;;;;3.90;1.92;;;17.00;86.50;;;;;;4976560;28;20117;-72
2022/08/03 10:49:20;;;;;;;5.15;2.03;;;16.90;86.10;;;;;;4981532;28;20023;-72
2022/08/03 10:51:48;;;;;;;7.57;2.25;;;16.90;85.90;;;;;;4986551;28;20034;-71
2022/08/03 10:57:48;;;;;;;5.00;1.95;;;17.00;85.60;;;;;;4984572;28;20042;-74
2022/08/03 11:00:19;;;;;;;4.85;1.88;;;17.00;85.00;;;;;;4987049;28;20125;-73
2022/08/03 11:03:15;;;;;;;10.63;2.10;;;17.00;84.80;;;;;;4985966;28;20022;-73
2022/08/03 11:05:48;;;;;;;7.80;3.05;;;17.10;84.60;;;;;;5002205;28;20066;-74
2022/08/03 11:08:31;;;;;;;10.75;4.40;;;17.10;84.80;;;;;;4978986;28;20486;-71
2022/08/03 11:11:25;;;;;;;10.90;2.70;;;17.10;85.20;;;;;;4985725;28;20023;-71
2022/08/03 11:14:03;;;;;;;6.40;2.42;;;17.10;85.40;;;;;;4980372;28;20436;-70
2022/08/03 11:16:34;;;;;;;3.70;2.22;;;17.20;86.10;;;;;;4984538;28;20022;-70
2022/08/03 11:19:04;;;;;;;8.13;2.88;;;17.10;85.30;;;;;;4984778;28;20026;-73
2022/08/03 11:24:40;;;;;;;7.40;2.90;;;17.10;85.70;;;;;;4981694;28;20178;-70
2022/08/03 11:27:32;;;;;;;3.88;2.10;;;17.10;85.60;;;;;;4981962;28;20030;-69
2022/08/03 11:29:59;;;;;;;13.23;4.10;;;17.10;85.50;;;;;;4982472;28;20033;-70
2022/08/03 11:32:47;;;;;;;11.90;2.38;;;17.10;85.30;;;;;;4980088;28;20359;-70
2022/08/03 11:35:15;;;;;;;5.25;2.80;;;17.00;85.30;;;;;;4981466;28;20039;-69
2022/08/03 11:37:57;;;;;;;7.80;3.00;;;17.00;85.30;;;;;;4987032;28;20723;-72
2022/08/03 11:40:49;;;;;;;8.10;2.78;;;17.00;85.70;;;;;;4988496;28;20033;-72
2022/08/03 11:43:22;;;;;;;5.65;2.30;;;17.00;86.10;;;;;;4984855;28;20017;-70
2022/08/03 11:46:06;;;;;;;19.80;3.08;;;17.00;86.50;;;;;;4989146;28;20033;-69
2022/08/03 11:48:37;;;;;;;10.60;3.90;;;17.00;86.60;;;;;;4987124;28;20051;-70
2022/08/03 11:51:06;;;;;;;7.65;2.55;;;17.00;86.70;;;;;;4982935;28;20018;-73
2022/08/03 11:53:33;;;;;;;5.15;2.17;;;17.00;86.70;;;;;;4983670;28;20381;-69
2022/08/03 11:56:01;;;;;;;9.75;2.08;;;17.10;86.60;;;;;;4983374;28;20031;-73
2022/08/03 11:58:28;;;;;;;5.63;1.40;;;17.10;86.20;;;;;;4979290;28;20523;-75
2022/08/03 12:01:06;;;;;;;1.80;1.13;;;17.10;86.10;;;;;;4980123;28;20028;-76
2022/08/03 12:03:35;;;;;;;8.00;1.30;;;17.10;85.50;;;;;;4984184;28;20066;-70
2022/08/03 12:06:03;;;;;;;4.80;1.83;;;17.10;85.00;;;;;;4981512;28;20498;-78
2022/08/03 12:08:32;;;;;;;1.60;0.98;;;17.10;84.70;;;;;;4982607;28;20058;-77
2022/08/03 12:11:01;;;;;;;2.03;0.98;;;17.20;84.60;;;;;;4980921;28;20370;-78
2022/08/03 12:13:37;;;;;;;6.60;1.70;;;17.20;84.40;;;;;;4987263;28;20023;-71
2022/08/03 12:16:04;;;;;;;3.30;0.85;;;17.20;84.30;;;;;;4987261;28;20030;-71
2022/08/03 12:18:31;;;;;;;4.90;2.75;;;17.30;84.10;;;;;;4986038;28;20424;-70
2022/08/03 12:21:09;;;;;;;2.13;0.60;;;17.30;84.00;;;;;;4986109;28;20053;-73
2022/08/03 12:23:37;;;;;;;4.85;0.85;;;17.30;83.70;;;;;;4986183;28;20034;-70
2022/08/03 12:26:07;;;;;;;6.40;1.10;;;17.40;83.40;;;;;;4985043;28;20031;-76
2022/08/03 12:28:34;;;;;;;6.05;0.95;;;17.50;83.00;;;;;;4984276;28;20022;-80
2022/08/03 12:31:05;;;;;;;1.75;1.05;;;17.50;82.50;;;;;;4980314;28;20031;-75
2022/08/03 12:33:52;;;;;;;3.17;1.00;;;17.60;82.30;;;;;;4985302;28;20026;-72
2022/08/03 12:36:19;;;;;;;5.25;2.05;;;17.60;81.90;;;;;;4998955;28;20369;-74
2022/08/03 12:38:54;;;;;;;5.55;1.90;;;17.60;81.80;;;;;;4985411;28;20085;-74
2022/08/03 12:41:28;;;;;;;4.22;1.92;;;17.50;81.50;;;;;;4997947;28;20433;-72
2022/08/03 12:43:55;;;;;;;4.30;1.70;;;17.50;81.40;;;;;;4984991;28;20040;-71
2022/08/03 12:46:22;;;;;;;2.70;0.95;;;17.50;81.20;;;;;;4987695;28;20393;-71
2022/08/03 12:48:59;;;;;;;4.25;1.45;;;17.40;81.20;;;;;;4979720;28;20026;-71
2022/08/03 12:51:27;;;;;;;1.02;0.55;;;17.50;81.30;;;;;;4979005;28;20074;-71
2022/08/03 12:53:55;;;;;;;4.43;0.50;;;17.50;81.30;;;;;;4979807;28;20023;-71
2022/08/03 12:56:22;;;;;;;4.50;1.00;;;17.40;80.80;;;;;;4983117;28;20106;-72
2022/08/03 12:58:52;;;;;;;7.47;0.70;;;17.40;80.60;;;;;;4982209;28;20019;-81
2022/08/03 13:01:21;;;;;;;3.05;1.00;;;17.40;80.50;;;;;;4982828;28;20029;-71
2022/08/03 13:03:50;;;;;;;2.67;0.80;;;17.50;80.70;;;;;;4980351;28;20049;-81
2022/08/03 13:06:18;;;;;;;2.15;0.60;;;17.50;80.70;;;;;;4982745;28;20055;-72
2022/08/03 13:08:48;;;;;;;0.73;0.70;;;17.50;80.70;;;;;;4983521;28;20113;-72